Time;durP1;ratioP1;P1;durP2;ratioP2;P2;SDS_P1;SDS_P2;PMS_P1;PMS_P2;Temp;Humidity;BMP_temperature;BMP_pressure;BME280_temperature;BME280_humidity;BME280_pressure;Samples;Min_cycle;Max_cycle;Signal;HPM_P1;HPM_P2
2024/04/05 00:01:40;;;;;;;3.47;1.50;;;;;;;12.82;98.21;100140.47;5221213;28;20031;-71
2024/04/05 00:04:11;;;;;;;3.88;1.10;;;;;;;12.84;98.77;100138.59;5216926;28;20468;-71
2024/04/05 00:06:41;;;;;;;5.05;1.55;;;;;;;12.64;100.00;100143.19;5225262;28;20020;-71
2024/04/05 00:09:12;;;;;;;7.85;1.85;;;;;;;12.74;98.92;100147.03;5221184;28;20039;-71
2024/04/05 00:11:42;;;;;;;3.17;1.10;;;;;;;12.61;99.96;100144.19;5222785;28;20041;-69
2024/04/05 00:14:12;;;;;;;4.22;1.58;;;;;;;12.51;100.00;100155.22;5219072;28;20559;-71
2024/04/05 00:16:43;;;;;;;2.65;1.13;;;;;;;12.54;100.00;100148.06;5221358;28;20028;-69
2024/04/05 00:19:13;;;;;;;3.65;1.20;;;;;;;12.62;100.00;100145.88;5219837;28;20542;-71
2024/04/05 00:21:44;;;;;;;3.88;1.10;;;;;;;12.72;100.00;100141.88;5217733;28;20024;-70
2024/04/05 00:24:14;;;;;;;4.55;1.33;;;;;;;12.80;100.00;100147.56;5218699;28;20404;-72
2024/04/05 00:26:44;;;;;;;4.47;1.52;;;;;;;12.81;100.00;100146.63;5221383;28;20027;-70
2024/04/05 00:29:15;;;;;;;4.25;1.20;;;;;;;12.74;100.00;100142.63;5217485;28;20427;-71
2024/04/05 00:31:45;;;;;;;4.75;1.77;;;;;;;12.78;100.00;100151.22;5219148;28;20055;-71
2024/04/05 00:34:15;;;;;;;4.78;1.30;;;;;;;12.80;100.00;100144.94;5218556;28;20048;-71
2024/04/05 00:36:46;;;;;;;5.03;1.90;;;;;;;12.79;100.00;100143.25;5221296;28;20051;-71
2024/04/05 00:39:16;;;;;;;5.15;1.65;;;;;;;12.77;100.00;100154.75;5223487;28;20028;-70
2024/04/05 00:41:46;;;;;;;5.22;1.38;;;;;;;12.79;100.00;100163.38;5217806;28;20550;-71
2024/04/05 00:44:16;;;;;;;3.20;1.20;;;;;;;12.73;100.00;100168.94;5218548;28;20021;-69
2024/04/05 00:46:47;;;;;;;2.20;0.73;;;;;;;12.77;100.00;100170.50;5219957;28;20029;-71
2024/04/05 00:49:17;;;;;;;4.72;0.98;;;;;;;12.77;100.00;100166.06;5220199;28;20418;-71
2024/04/05 00:51:48;;;;;;;3.08;0.90;;;;;;;12.77;100.00;100171.31;5215801;28;20451;-70
2024/04/05 00:54:20;;;;;;;5.22;1.20;;;;;;;12.74;100.00;100170.63;5221032;28;20024;-71
2024/04/05 00:56:50;;;;;;;2.50;0.80;;;;;;;12.64;100.00;100175.47;5206021;28;20471;-71
2024/04/05 00:59:21;;;;;;;3.92;0.80;;;;;;;12.65;100.00;100177.19;5217688;28;20032;-70
2024/04/05 01:01:51;;;;;;;7.82;1.27;;;;;;;12.59;100.00;100180.13;5217823;28;20032;-71
2024/04/05 01:04:23;;;;;;;5.10;0.93;;;;;;;12.60;100.00;100187.06;5219984;28;20056;-71
2024/04/05 01:06:54;;;;;;;1.63;0.85;;;;;;;12.58;100.00;100178.41;5222338;28;20208;-70
2024/04/05 01:09:24;;;;;;;5.70;0.85;;;;;;;12.53;100.00;100176.94;5217149;28;20051;-71
2024/04/05 01:11:56;;;;;;;3.03;0.90;;;;;;;12.54;100.00;100178.66;5219707;28;20316;-71
2024/04/05 01:14:26;;;;;;;1.63;0.55;;;;;;;12.50;100.00;100177.94;5217248;28;20040;-71
2024/04/05 01:16:57;;;;;;;5.45;0.95;;;;;;;12.46;100.00;100183.44;5220267;28;20033;-71
2024/04/05 01:19:28;;;;;;;2.28;0.98;;;;;;;12.46;100.00;100181.66;5217404;28;20025;-71
2024/04/05 01:21:59;;;;;;;3.92;0.95;;;;;;;12.45;100.00;100174.69;5218803;28;20106;-71
2024/04/05 01:24:30;;;;;;;1.90;0.70;;;;;;;12.36;100.00;100187.41;5217422;28;20099;-71
2024/04/05 01:27:00;;;;;;;3.50;0.85;;;;;;;12.38;100.00;100186.44;5218527;28;20283;-71
2024/04/05 01:29:30;;;;;;;4.55;0.75;;;;;;;12.30;100.00;100180.69;5217441;28;20035;-71
2024/04/05 01:32:01;;;;;;;3.60;0.90;;;;;;;12.28;100.00;100176.47;5217566;28;20028;-71
2024/04/05 01:34:31;;;;;;;3.30;0.70;;;;;;;12.32;100.00;100185.88;5222064;28;20400;-71
2024/04/05 01:37:01;;;;;;;5.22;0.90;;;;;;;12.26;99.77;100189.63;5220979;28;20041;-71
2024/04/05 01:39:34;;;;;;;3.15;0.70;;;;;;;12.25;100.00;100187.94;5220828;28;20037;-71
2024/04/05 01:42:04;;;;;;;2.17;0.50;;;;;;;12.24;100.00;100186.25;5220680;28;20020;-71
2024/04/05 01:44:34;;;;;;;4.30;0.80;;;;;;;12.16;99.96;100185.75;5219552;28;20372;-69
2024/04/05 01:47:05;;;;;;;4.78;0.50;;;;;;;12.16;100.00;100193.59;5215333;28;20024;-70
2024/04/05 01:49:35;;;;;;;5.18;0.60;;;;;;;12.12;99.88;100186.00;5215406;28;20619;-71
2024/04/05 01:52:06;;;;;;;3.75;1.20;;;;;;;12.08;100.00;100193.13;5219967;28;20048;-71
2024/04/05 01:54:36;;;;;;;5.45;0.75;;;;;;;12.08;99.69;100184.41;5215912;28;20387;-71
2024/04/05 01:57:06;;;;;;;2.33;0.70;;;;;;;12.08;98.97;100190.53;5215973;28;20036;-71
2024/04/05 01:59:37;;;;;;;2.28;0.47;;;;;;;12.07;98.86;100183.59;5223621;28;20484;-69
2024/04/05 02:02:07;;;;;;;6.65;1.17;;;;;;;12.04;98.86;100188.97;5219710;28;20115;-71
2024/04/05 02:04:37;;;;;;;4.10;0.80;;;;;;;11.99;99.26;100185.72;5216796;28;20055;-71
2024/04/05 02:07:08;;;;;;;3.45;1.08;;;;;;;11.94;99.14;100179.84;5215807;28;20028;-71
2024/04/05 02:09:38;;;;;;;3.63;1.13;;;;;;;12.03;97.99;100192.53;5217404;28;20444;-71
2024/04/05 02:12:08;;;;;;;4.40;0.90;;;;;;;12.05;98.90;100189.81;5213426;28;20089;-71
2024/04/05 02:14:38;;;;;;;6.32;0.90;;;;;;;11.86;98.61;100183.75;5219009;28;20056;-71
2024/04/05 02:17:09;;;;;;;4.55;0.68;;;;;;;11.73;99.83;100183.47;5221206;28;20024;-71
2024/04/05 02:19:40;;;;;;;3.83;0.82;;;;;;;11.76;99.48;100178.09;5218646;28;20032;-71
2024/04/05 02:22:10;;;;;;;5.47;1.25;;;;;;;11.65;99.93;100179.53;5220125;28;20270;-71
2024/04/05 02:24:41;;;;;;;4.57;0.85;;;;;;;11.66;100.00;100187.31;5220247;28;20475;-71
2024/04/05 02:27:11;;;;;;;2.53;0.80;;;;;;;11.65;100.00;100185.59;5221217;28;20524;-71
2024/04/05 02:29:42;;;;;;;4.40;0.80;;;;;;;11.77;99.26;100189.44;5219747;28;20035;-71
2024/04/05 02:32:12;;;;;;;2.35;0.70;;;;;;;11.61;98.36;100184.03;5217341;28;20053;-71
2024/04/05 02:34:42;;;;;;;2.67;0.77;;;;;;;11.69;98.34;100184.56;5218326;28;20607;-69
2024/04/05 02:37:12;;;;;;;5.25;1.23;;;;;;;11.54;98.88;100187.84;5218774;28;20037;-71
2024/04/05 02:39:43;;;;;;;2.97;0.60;;;;;;;11.47;100.00;100194.25;5220305;28;20037;-69
2024/04/05 02:42:13;;;;;;;5.90;0.82;;;;;;;11.46;99.51;100192.53;5217928;28;20024;-71
2024/04/05 02:44:44;;;;;;;5.10;1.10;;;;;;;11.47;98.69;100199.47;5217752;28;20020;-70
2024/04/05 02:47:14;;;;;;;5.10;1.15;;;;;;;11.57;99.14;100189.47;5217851;28;20025;-71
2024/04/05 02:49:44;;;;;;;3.60;1.02;;;;;;;11.57;99.28;100187.72;5221979;28;20024;-71
2024/04/05 02:52:15;;;;;;;5.80;1.10;;;;;;;11.46;99.04;100189.94;5217111;28;20029;-71
2024/04/05 02:54:45;;;;;;;3.33;0.85;;;;;;;11.51;98.71;100190.59;5217901;28;20112;-71
2024/04/05 02:57:15;;;;;;;3.60;0.47;;;;;;;11.47;99.01;100199.47;5217619;28;20037;-71
2024/04/05 02:59:46;;;;;;;6.93;0.70;;;;;;;11.61;98.96;100191.06;5220505;28;20020;-71
2024/04/05 03:02:16;;;;;;;2.08;0.65;;;;;;;11.56;99.31;100201.72;5221755;28;20044;-71
2024/04/05 03:04:46;;;;;;;2.53;0.60;;;;;;;11.65;98.98;100201.28;5216348;28;20050;-71
2024/04/05 03:07:16;;;;;;;6.18;1.05;;;;;;;11.69;98.08;100189.78;5216407;28;20071;-71
2024/04/05 03:09:47;;;;;;;2.05;0.55;;;;;;;11.70;98.23;100199.34;5218861;28;20436;-71
2024/04/05 03:12:17;;;;;;;4.95;1.05;;;;;;;11.77;97.66;100198.13;5218540;28;20028;-71
2024/04/05 03:14:50;;;;;;;4.65;0.93;;;;;;;11.71;97.68;100205.41;5218971;28;20063;-71
2024/04/05 03:17:21;;;;;;;3.17;0.85;;;;;;;11.69;96.95;100205.50;5217460;28;20303;-71
2024/04/05 03:19:51;;;;;;;2.53;0.60;;;;;;;11.75;97.61;100207.81;5216663;28;20059;-71
2024/04/05 03:22:21;;;;;;;3.75;0.90;;;;;;;11.70;97.85;100209.81;5218908;28;20029;-71
2024/04/05 03:24:52;;;;;;;3.08;0.80;;;;;;;11.76;97.71;100209.50;5216107;28;20028;-71
2024/04/05 03:27:22;;;;;;;2.13;0.47;;;;;;;11.68;97.29;100205.53;5221881;28;20054;-71
2024/04/05 03:29:52;;;;;;;4.20;1.17;;;;;;;11.72;97.75;100201.84;5224031;28;20475;-71
2024/04/05 03:32:22;;;;;;;3.15;0.98;;;;;;;11.60;98.54;100194.59;5219490;28;20040;-71
2024/04/05 03:34:53;;;;;;;4.30;1.13;;;;;;;11.77;97.33;100203.34;5216901;28;20112;-71
2024/04/05 03:37:23;;;;;;;5.60;0.98;;;;;;;11.78;96.91;100207.66;5219871;28;20036;-71
2024/04/05 03:39:54;;;;;;;3.13;0.70;;;;;;;11.69;97.28;100202.00;5218646;28;20033;-71
2024/04/05 03:42:24;;;;;;;3.92;0.60;;;;;;;11.62;97.02;100198.81;5217562;28;20087;-71
2024/04/05 03:44:55;;;;;;;4.57;0.93;;;;;;;11.63;97.45;100203.13;5220095;28;20021;-70
2024/04/05 03:47:25;;;;;;;3.22;0.47;;;;;;;11.66;96.84;100208.25;5226343;28;20494;-71
2024/04/05 03:49:55;;;;;;;6.97;2.30;;;;;;;11.65;97.44;100213.53;5224423;28;20033;-70
2024/04/05 03:52:26;;;;;;;4.30;0.80;;;;;;;11.59;97.26;100213.84;5220260;28;20782;-69
2024/04/05 03:54:56;;;;;;;2.67;0.60;;;;;;;11.69;96.56;100207.25;5226645;28;20124;-70
2024/04/05 03:57:26;;;;;;;5.57;0.90;;;;;;;11.66;96.21;100217.84;5224876;28;20542;-69
2024/04/05 03:59:56;;;;;;;3.63;0.98;;;;;;;11.59;96.52;100214.66;5224380;28;20029;-71
2024/04/05 04:02:27;;;;;;;4.25;1.00;;;;;;;11.56;96.23;100217.44;5223503;28;20115;-69
2024/04/05 04:04:57;;;;;;;4.05;0.73;;;;;;;11.59;97.29;100221.69;5221714;28;20111;-71
2024/04/05 04:07:27;;;;;;;4.38;0.70;;;;;;;11.61;97.72;100218.06;5225772;28;20697;-71
2024/04/05 04:09:58;;;;;;;3.65;0.80;;;;;;;11.62;97.96;100222.38;5227268;28;20025;-70
2024/04/05 04:12:28;;;;;;;2.78;0.77;;;;;;;11.64;97.89;100225.75;5225038;28;20060;-70
2024/04/05 04:14:58;;;;;;;5.70;1.25;;;;;;;11.67;97.53;100223.03;5225400;28;20074;-71
2024/04/05 04:17:28;;;;;;;2.40;0.90;;;;;;;11.67;97.66;100224.78;5221836;28;20546;-71
2024/04/05 04:20:00;;;;;;;7.65;1.20;;;;;;;11.73;98.04;100220.13;5220849;28;20028;-71
2024/04/05 04:22:32;;;;;;;3.13;0.70;;;;;;;11.67;97.89;100233.50;5223692;28;20565;-70
2024/04/05 04:25:03;;;;;;;2.97;0.68;;;;;;;11.63;98.13;100234.53;5230441;28;20029;-71
2024/04/05 04:27:34;;;;;;;4.32;0.80;;;;;;;11.77;98.15;100226.91;5223926;28;20032;-70
2024/04/05 04:30:06;;;;;;;3.22;1.00;;;;;;;11.64;97.76;100230.16;5225864;28;20028;-71
2024/04/05 04:32:37;;;;;;;2.00;0.63;;;;;;;11.59;98.61;100238.22;5224680;28;20040;-71
2024/04/05 04:35:07;;;;;;;4.45;0.95;;;;;;;11.64;99.66;100241.47;5222909;28;20050;-71
2024/04/05 04:37:38;;;;;;;3.83;0.60;;;;;;;11.74;99.93;100237.53;5220956;28;20028;-71
2024/04/05 04:40:11;;;;;;;4.78;1.40;;;;;;;11.77;100.00;100231.31;5221157;28;20028;-71
2024/04/05 04:42:41;;;;;;;3.75;0.70;;;;;;;11.82;100.00;100235.41;5220960;28;20051;-71
2024/04/05 04:45:11;;;;;;;3.33;0.68;;;;;;;11.90;100.00;100238.53;5227807;28;20016;-71
2024/04/05 04:47:42;;;;;;;2.30;0.68;;;;;;;11.92;100.00;100241.09;5224834;28;20025;-70
2024/04/05 04:50:13;;;;;;;4.05;0.70;;;;;;;12.06;100.00;100244.75;5223260;28;20020;-71
2024/04/05 04:52:43;;;;;;;3.65;0.60;;;;;;;12.17;100.00;100247.72;5223112;28;20033;-70
2024/04/05 04:55:14;;;;;;;2.30;0.70;;;;;;;12.18;99.87;100243.31;5221780;28;20020;-71
2024/04/05 04:57:44;;;;;;;2.10;0.50;;;;;;;12.19;99.78;100250.25;5224294;28;20021;-71
2024/04/05 05:00:16;;;;;;;3.42;0.80;;;;;;;12.18;100.00;100243.31;5221797;28;20040;-71
2024/04/05 05:02:46;;;;;;;2.53;0.85;;;;;;;12.22;100.00;100257.97;5222189;28;20064;-71
2024/04/05 05:05:17;;;;;;;4.22;0.90;;;;;;;12.23;100.00;100244.81;5226932;28;20052;-69
2024/04/05 05:07:47;;;;;;;1.17;0.55;;;;;;;12.33;100.00;100242.59;5222230;28;20526;-71
2024/04/05 05:10:17;;;;;;;3.58;0.60;;;;;;;12.37;99.48;100250.25;5236129;22;20128;-72
2024/04/05 05:12:48;;;;;;;4.78;0.93;;;;;;;12.38;100.00;100248.47;5220806;28;20066;-73
2024/04/05 05:15:18;;;;;;;3.60;0.60;;;;;;;12.39;100.00;100243.16;5220129;28;20091;-74
2024/04/05 05:17:49;;;;;;;2.72;0.52;;;;;;;12.34;100.00;100255.66;5228024;28;20029;-74
2024/04/05 05:20:22;;;;;;;2.22;0.60;;;;;;;12.46;100.00;100243.72;5204895;28;20149;-74
2024/04/05 05:22:53;;;;;;;3.78;0.60;;;;;;;12.50;100.00;100240.84;5226602;28;20021;-74
2024/04/05 05:25:24;;;;;;;3.67;1.15;;;;;;;12.47;100.00;100246.25;5222159;28;20273;-74
2024/04/05 05:27:54;;;;;;;4.03;0.80;;;;;;;12.51;100.00;100242.56;5221732;28;20036;-74
2024/04/05 05:30:24;;;;;;;2.42;0.80;;;;;;;12.56;100.00;100245.81;5222048;28;20029;-74
2024/04/05 05:32:56;;;;;;;4.32;0.90;;;;;;;12.60;99.73;100249.97;5223956;28;20162;-74
2024/04/05 05:35:27;;;;;;;5.07;0.70;;;;;;;12.73;99.71;100242.34;5184960;28;20033;-74
2024/04/05 05:37:58;;;;;;;7.15;0.68;;;;;;;12.83;98.34;100239.19;5187959;28;20021;-73
2024/04/05 05:40:28;;;;;;;3.92;0.70;;;;;;;12.83;98.95;100248.84;5205067;28;20052;-74
2024/04/05 05:42:59;;;;;;;3.03;0.70;;;;;;;13.01;98.77;100248.78;5202554;28;20428;-72
2024/04/05 05:45:29;;;;;;;3.50;0.57;;;;;;;13.10;98.80;100243.91;5223186;28;20017;-74
2024/04/05 05:47:59;;;;;;;5.38;0.90;;;;;;;13.25;97.61;100237.06;5217976;28;20044;-74
2024/04/05 05:50:30;;;;;;;2.53;0.60;;;;;;;13.33;98.00;100243.59;5222175;28;20017;-72
2024/04/05 05:53:00;;;;;;;3.47;1.02;;;;;;;13.16;97.62;100253.25;5225273;28;20032;-74
2024/04/05 05:55:30;;;;;;;4.10;0.90;;;;;;;13.29;97.78;100255.19;5218501;28;20031;-72
2024/04/05 05:58:01;;;;;;;3.72;0.63;;;;;;;13.19;96.31;100259.22;5222365;28;20297;-74
2024/04/05 06:00:31;;;;;;;4.13;0.75;;;;;;;13.19;97.50;100267.09;5203261;28;20484;-72
2024/04/05 06:03:02;;;;;;;1.92;0.77;;;;;;;13.12;98.66;100267.47;5224689;28;20082;-74
2024/04/05 06:05:33;;;;;;;3.03;0.88;;;;;;;13.11;98.46;100271.03;5202367;28;20021;-74
2024/04/05 06:08:03;;;;;;;3.13;0.77;;;;;;;13.12;99.04;100272.72;5221722;28;20154;-74
2024/04/05 06:10:34;;;;;;;4.72;0.88;;;;;;;13.08;99.09;100281.69;5220638;28;20070;-74
2024/04/05 06:13:05;;;;;;;4.47;1.20;;;;;;;13.14;100.00;100276.09;5223219;28;20043;-72
2024/04/05 06:15:35;;;;;;;3.38;0.70;;;;;;;13.12;99.28;100275.34;5221357;28;20021;-74
2024/04/05 06:18:05;;;;;;;3.28;0.80;;;;;;;13.15;100.00;100275.19;5224023;28;20036;-72
2024/04/05 06:20:36;;;;;;;5.65;1.50;;;;;;;13.20;100.00;100270.56;5224073;28;20029;-74
2024/04/05 06:23:06;;;;;;;1.65;0.50;;;;;;;13.33;100.00;100279.47;5208266;28;20120;-72
2024/04/05 06:25:36;;;;;;;2.88;1.10;;;;;;;13.41;99.63;100286.03;5206074;28;20064;-74
2024/04/05 06:28:06;;;;;;;5.15;0.88;;;;;;;13.44;99.27;100291.13;5204745;28;20039;-72
2024/04/05 06:30:37;;;;;;;1.77;0.55;;;;;;;13.49;99.19;100283.03;5221781;28;20052;-74
2024/04/05 06:33:07;;;;;;;1.63;0.50;;;;;;;13.61;100.00;100277.97;5204168;28;20024;-72
2024/04/05 06:35:37;;;;;;;3.17;0.95;;;;;;;13.65;99.98;100283.91;5220656;28;20400;-74
2024/04/05 06:38:08;;;;;;;2.47;0.70;;;;;;;13.80;99.67;100275.22;5203304;28;20044;-72
2024/04/05 06:40:39;;;;;;;2.20;0.50;;;;;;;13.99;99.90;100286.44;5220809;28;20079;-72
2024/04/05 06:43:11;;;;;;;5.78;0.77;;;;;;;14.00;99.23;100275.00;5220358;28;20066;-73
2024/04/05 06:45:52;;;;;;;2.60;0.63;;;;;;;14.17;99.21;100274.97;5218285;28;20387;-74
2024/04/05 06:48:22;;;;;;;3.10;0.73;;;;;;;14.36;98.99;100280.91;5219509;28;20032;-74
2024/04/05 06:50:53;;;;;;;3.53;0.75;;;;;;;14.45;98.19;100275.16;5219139;28;20028;-74
2024/04/05 06:53:29;;;;;;;3.22;0.70;;;;;;;14.49;98.21;100277.53;5201656;28;20052;-74
2024/04/05 06:56:00;;;;;;;2.38;0.70;;;;;;;14.62;97.15;100280.31;5221272;28;20031;-74
2024/04/05 06:58:30;;;;;;;2.85;0.75;;;;;;;14.59;97.31;100270.78;5218799;28;20237;-73
2024/04/05 07:01:01;;;;;;;3.92;0.70;;;;;;;14.67;96.82;100281.75;5217159;28;20419;-73
2024/04/05 07:03:32;;;;;;;4.70;1.17;;;;;;;14.79;97.23;100288.09;5219248;28;20053;-73
2024/04/05 07:06:06;;;;;;;2.53;0.70;;;;;;;14.76;96.94;100286.47;5204404;28;20508;-73
2024/04/05 07:08:36;;;;;;;4.65;0.88;;;;;;;14.88;96.47;100288.41;5219174;28;20655;-73
2024/04/05 07:11:09;;;;;;;2.95;0.80;;;;;;;14.92;96.37;100293.41;5220941;28;20055;-73
2024/04/05 07:13:39;;;;;;;2.35;1.02;;;;;;;14.92;95.81;100296.03;5220551;28;20024;-73
2024/04/05 07:16:11;;;;;;;2.53;0.70;;;;;;;15.08;96.63;100296.84;5201896;28;20021;-72
2024/04/05 07:18:42;;;;;;;2.22;0.63;;;;;;;15.22;95.99;100299.50;5223128;28;20023;-73
2024/04/05 07:21:13;;;;;;;4.95;1.42;;;;;;;15.14;96.55;100306.16;5224871;28;20025;-71
2024/04/05 07:23:43;;;;;;;5.38;0.95;;;;;;;15.27;95.64;100296.59;5207733;28;20028;-73
2024/04/05 07:26:13;;;;;;;2.47;0.95;;;;;;;15.34;95.68;100292.72;5206857;28;20383;-71
2024/04/05 07:28:44;;;;;;;3.80;0.95;;;;;;;15.42;95.45;100301.00;5225474;28;20159;-72
2024/04/05 07:31:14;;;;;;;2.20;0.70;;;;;;;15.51;94.84;100292.56;5226348;28;20032;-73
2024/04/05 07:33:44;;;;;;;1.35;0.55;;;;;;;15.43;94.94;100295.66;5225216;28;20020;-73
2024/04/05 07:36:18;;;;;;;3.50;0.60;;;;;;;15.47;95.03;100298.94;5223366;28;20174;-72
2024/04/05 07:38:49;;;;;;;1.65;0.50;;;;;;;15.57;95.34;100295.66;5220194;28;20017;-73
2024/04/05 07:41:19;;;;;;;2.03;0.60;;;;;;;15.67;94.44;100309.97;5225123;28;20373;-73
2024/04/05 07:43:50;;;;;;;2.33;0.60;;;;;;;15.73;92.72;100312.22;5225669;28;20021;-73
2024/04/05 07:46:20;;;;;;;1.88;0.88;;;;;;;15.65;92.76;100309.22;5223083;28;20384;-73
2024/04/05 07:48:51;;;;;;;3.17;0.60;;;;;;;15.66;93.17;100316.19;5205152;28;20507;-73
2024/04/05 07:51:21;;;;;;;1.58;0.43;;;;;;;15.74;93.22;100319.19;5222571;28;20036;-73
2024/04/05 07:53:52;;;;;;;4.05;1.30;;;;;;;15.95;94.20;100327.59;5225228;28;20025;-73
2024/04/05 07:56:22;;;;;;;2.40;0.60;;;;;;;15.81;93.78;100302.09;5225172;28;20606;-73
2024/04/05 07:58:53;;;;;;;2.92;0.63;;;;;;;16.20;93.43;100304.88;5225818;28;20024;-73
2024/04/05 08:01:23;;;;;;;3.45;0.80;;;;;;;16.86;91.79;100309.38;5204234;28;20217;-73
2024/04/05 08:03:53;;;;;;;3.15;0.60;;;;;;;17.31;89.13;100302.84;5221744;28;20748;-73
2024/04/05 08:06:24;;;;;;;3.08;1.08;;;;;;;17.50;86.74;100320.00;5203394;28;20043;-73
2024/04/05 08:08:54;;;;;;;3.08;0.70;;;;;;;17.66;85.58;100314.53;5223225;28;20288;-73
2024/04/05 08:11:24;;;;;;;2.53;0.60;;;;;;;17.47;86.51;100319.38;5223756;28;20099;-73
2024/04/05 08:13:54;;;;;;;2.22;0.82;;;;;;;17.06;86.83;100314.19;5223075;28;20040;-73
2024/04/05 08:16:26;;;;;;;5.10;0.80;;;;;;;16.73;89.89;100314.69;5223367;28;20135;-73
2024/04/05 08:18:58;;;;;;;2.88;0.77;;;;;;;16.71;89.53;100335.91;5230070;28;20506;-73
2024/04/05 08:21:28;;;;;;;2.42;0.70;;;;;;;16.27;91.54;100347.53;5218423;28;20037;-73
2024/04/05 08:23:59;;;;;;;3.85;1.00;;;;;;;16.27;91.13;100345.75;5208968;28;20032;-72
2024/04/05 08:26:29;;;;;;;3.72;0.98;;;;;;;16.28;91.74;100342.19;5223827;28;20355;-73
2024/04/05 08:29:00;;;;;;;2.17;0.70;;;;;;;16.10;92.26;100335.41;5225615;28;20109;-73
2024/04/05 08:31:30;;;;;;;2.05;0.60;;;;;;;15.96;94.57;100314.31;5205555;28;20029;-73
2024/04/05 08:34:01;;;;;;;3.40;0.80;;;;;;;16.06;95.10;100318.06;5224269;28;20408;-73
2024/04/05 08:36:31;;;;;;;3.47;1.00;;;;;;;16.13;96.01;100335.22;5223532;28;20111;-73
2024/04/05 08:39:03;;;;;;;2.65;0.80;;;;;;;16.07;94.49;100319.75;5227222;28;20028;-73
2024/04/05 08:41:36;;;;;;;3.35;0.70;;;;;;;16.06;96.48;100311.97;5206471;28;20596;-73
2024/04/05 08:44:06;;;;;;;2.08;0.60;;;;;;;16.05;97.22;100312.91;5228054;28;20028;-73
2024/04/05 08:46:41;;;;;;;1.63;0.47;;;;;;;16.05;97.93;100289.19;5219440;28;20091;-71
2024/04/05 08:49:11;;;;;;;3.28;0.80;;;;;;;16.16;98.96;100295.47;5225146;28;20032;-73
2024/04/05 08:51:41;;;;;;;3.47;0.93;;;;;;;16.38;100.00;100298.47;5222483;28;20029;-73
2024/04/05 08:54:12;;;;;;;3.50;0.77;;;;;;;16.79;98.70;100288.75;5206019;28;20036;-73
2024/04/05 08:56:45;;;;;;;3.13;0.77;;;;;;;17.27;96.19;100282.84;5222337;28;20506;-70
2024/04/05 08:59:17;;;;;;;1.80;0.60;;;;;;;17.29;94.71;100271.22;5222038;28;20078;-73
2024/04/05 09:01:51;;;;;;;3.63;0.80;;;;;;;17.33;94.05;100256.03;5224284;28;20032;-73
2024/04/05 09:04:21;;;;;;;1.80;0.57;;;;;;;17.12;93.19;100253.03;5223162;28;20514;-71
2024/04/05 09:06:55;;;;;;;1.15;0.57;;;;;;;16.92;94.30;100237.69;5226782;28;20020;-74
2024/04/05 09:09:30;;;;;;;2.10;0.70;;;;;;;16.83;94.63;100234.81;5222100;28;20037;-73
2024/04/05 09:12:15;;;;;;;2.65;0.98;;;;;;;16.81;95.80;100236.69;5228177;28;20036;-73
2024/04/05 09:14:45;;;;;;;3.63;0.70;;;;;;;16.73;97.04;100227.59;5223687;28;20036;-73
2024/04/05 09:17:16;;;;;;;4.25;0.98;;;;;;;16.81;98.64;100226.97;5225948;28;20024;-74
2024/04/05 09:19:46;;;;;;;2.45;0.70;;;;;;;17.03;99.09;100227.25;5226164;28;20021;-73
2024/04/05 09:22:18;;;;;;;3.75;0.80;;;;;;;17.36;98.56;100214.44;5222032;28;20107;-72
2024/04/05 09:24:59;;;;;;;3.00;1.02;;;;;;;17.77;95.78;100219.44;5223649;28;20276;-73
2024/04/05 09:27:32;;;;;;;2.03;0.70;;;;;;;18.03;95.80;100226.38;5224956;28;20338;-73
2024/04/05 09:30:04;;;;;;;4.47;0.90;;;;;;;18.17;94.18;100226.25;5224106;28;20312;-73
2024/04/05 09:32:35;;;;;;;2.47;0.73;;;;;;;18.45;93.03;100228.59;5203644;28;20075;-72
2024/04/05 09:35:11;;;;;;;4.40;0.80;;;;;;;19.30;89.07;100209.66;5227839;28;20040;-74
2024/04/05 09:37:42;;;;;;;2.70;0.70;;;;;;;19.43;87.72;100199.81;5221236;28;20111;-73
2024/04/05 09:40:16;;;;;;;2.78;0.65;;;;;;;19.30;86.02;100204.38;5223710;28;20111;-73
2024/04/05 09:42:46;;;;;;;1.95;0.68;;;;;;;19.45;87.72;100197.06;5221414;28;20435;-73
2024/04/05 09:45:19;;;;;;;3.00;0.80;;;;;;;19.25;85.43;100195.94;5188518;28;20043;-73
2024/04/05 09:47:52;;;;;;;1.77;0.60;;;;;;;19.12;86.66;100197.81;5221871;28;20028;-74
2024/04/05 09:50:22;;;;;;;0.98;0.50;;;;;;;19.12;86.81;100183.72;5221913;28;20107;-72
2024/04/05 09:52:53;;;;;;;3.58;0.80;;;;;;;18.85;86.13;100184.03;5224310;28;20147;-73
2024/04/05 09:55:28;;;;;;;2.65;0.80;;;;;;;18.96;87.10;100189.34;5223083;28;20032;-73
2024/04/05 09:57:58;;;;;;;2.50;0.80;;;;;;;18.81;87.53;100184.38;5222787;28;20035;-74
2024/04/05 10:00:29;;;;;;;1.75;0.70;;;;;;;18.84;88.25;100190.28;5223435;28;20037;-73
2024/04/05 10:03:00;;;;;;;3.20;0.70;;;;;;;18.89;85.18;100182.81;5224431;28;20029;-72
2024/04/05 10:05:34;;;;;;;2.65;0.82;;;;;;;18.87;86.62;100179.44;5202232;28;20036;-73
2024/04/05 10:08:13;;;;;;;1.20;0.52;;;;;;;18.92;87.24;100176.47;5221303;28;20072;-73
2024/04/05 10:10:44;;;;;;;1.83;0.50;;;;;;;19.22;89.43;100158.22;5220897;28;20108;-71
2024/04/05 10:13:24;;;;;;;3.20;0.60;;;;;;;19.59;87.01;100172.97;5220725;28;20027;-73
2024/04/05 10:15:57;;;;;;;3.30;0.60;;;;;;;19.40;86.41;100178.84;5218681;28;20033;-73
2024/04/05 10:18:29;;;;;;;0.95;0.40;;;;;;;19.28;86.29;100182.44;5221877;28;20021;-74
2024/04/05 10:21:09;;;;;;;2.38;0.70;;;;;;;19.49;86.47;100162.25;5222255;28;20035;-72
2024/04/05 10:23:44;;;;;;;3.50;0.80;;;;;;;19.55;87.49;100161.75;5202425;28;20280;-72
2024/04/05 10:26:15;;;;;;;1.95;0.43;;;;;;;19.67;87.08;100150.19;5202739;28;20016;-73
2024/04/05 10:28:45;;;;;;;1.75;0.52;;;;;;;19.81;87.47;100152.56;5223226;28;20025;-73
2024/04/05 10:31:15;;;;;;;3.25;0.60;;;;;;;19.48;83.33;100152.56;5223332;28;20596;-73
2024/04/05 10:33:45;;;;;;;1.27;0.40;;;;;;;19.60;84.52;100154.28;5221044;28;20108;-73
2024/04/05 10:36:16;;;;;;;3.97;0.63;;;;;;;19.34;84.16;100144.88;5223119;28;20054;-73
2024/04/05 10:38:46;;;;;;;1.25;0.43;;;;;;;19.11;84.96;100144.94;5201520;28;20025;-73
2024/04/05 10:41:18;;;;;;;0.80;0.38;;;;;;;19.09;84.37;100141.59;5223411;28;20024;-74
2024/04/05 10:44:00;;;;;;;2.33;0.50;;;;;;;18.92;87.42;100142.84;5203820;28;20036;-73
2024/04/05 10:46:36;;;;;;;1.65;0.60;;;;;;;18.85;88.58;100133.72;5200066;28;20447;-73
2024/04/05 10:49:07;;;;;;;2.28;0.57;;;;;;;18.64;88.62;100117.75;5222915;28;20021;-73
2024/04/05 10:51:38;;;;;;;1.38;0.52;;;;;;;18.50;88.84;100121.44;5223344;28;20032;-73
2024/04/05 10:54:13;;;;;;;0.70;0.30;;;;;;;18.36;88.73;100118.16;5211139;28;20300;-71
2024/04/05 10:56:44;;;;;;;1.45;0.50;;;;;;;18.48;88.33;100111.94;5226721;28;20029;-71
2024/04/05 10:59:17;;;;;;;1.17;0.50;;;;;;;18.39;88.76;100112.63;5228112;28;20101;-73
2024/04/05 11:01:48;;;;;;;2.47;0.47;;;;;;;18.26;90.44;100115.31;5223657;28;20035;-73
2024/04/05 11:04:24;;;;;;;0.95;0.50;;;;;;;18.07;90.67;100116.75;5228328;28;20037;-73
2024/04/05 11:07:00;;;;;;;0.73;0.22;;;;;;;18.11;91.09;100097.91;5229739;28;20022;-74
2024/04/05 11:09:37;;;;;;;1.25;0.45;;;;;;;18.20;91.12;100101.69;5226274;28;20052;-75
2024/04/05 11:12:08;;;;;;;2.22;0.65;;;;;;;18.43;91.92;100096.41;5210579;28;20016;-74
2024/04/05 11:14:38;;;;;;;2.88;0.50;;;;;;;18.49;91.70;100088.00;5226775;28;20036;-74
2024/04/05 11:17:09;;;;;;;2.00;0.50;;;;;;;18.63;91.26;100086.94;5224567;28;20020;-75
2024/04/05 11:19:39;;;;;;;1.67;0.35;;;;;;;18.66;91.47;100084.09;5225315;28;20404;-75
2024/04/05 11:22:09;;;;;;;2.05;0.77;;;;;;;18.86;90.68;100089.50;5228292;28;20032;-76
2024/04/05 11:24:47;;;;;;;0.93;0.60;;;;;;;18.81;88.40;100079.31;5225962;28;20024;-75
2024/04/05 11:27:21;;;;;;;1.10;0.45;;;;;;;19.07;90.37;100064.84;5223884;28;20060;-73
2024/04/05 11:29:51;;;;;;;1.60;0.47;;;;;;;19.17;91.01;100060.56;5223428;28;20643;-74
2024/04/05 11:32:25;;;;;;;1.92;0.60;;;;;;;19.24;90.85;100058.28;5207283;28;20059;-74
2024/04/05 11:34:56;;;;;;;2.30;0.68;;;;;;;19.26;92.42;100045.75;5223842;28;20086;-75
2024/04/05 11:37:28;;;;;;;3.08;1.05;;;;;;;19.03;90.10;100046.66;5205733;28;20688;-75
2024/04/05 11:39:59;;;;;;;1.77;0.80;;;;;;;18.92;90.12;100038.75;5224299;28;20107;-73
2024/04/05 11:42:29;;;;;;;1.58;0.77;;;;;;;18.90;90.85;100040.66;5224241;28;20029;-76